createdAt,value
2018-11-04T00:00:50.164Z,4.3
2018-11-04T00:01:50.201Z,4.1
2018-11-04T00:02:50.307Z,4
2018-11-04T00:03:50.169Z,4
2018-11-04T00:04:50.227Z,4.3
2018-11-04T00:05:50.234Z,4.4
2018-11-04T00:06:50.243Z,4.5
2018-11-04T00:07:50.198Z,4.2
2018-11-04T00:09:00.071Z,4.3
2018-11-04T00:09:50.217Z,4.3
2018-11-04T00:10:50.247Z,4.3
2018-11-04T00:11:50.233Z,4.3
2018-11-04T00:12:50.162Z,4.4
2018-11-04T00:13:50.248Z,4.1
2018-11-04T00:14:50.297Z,4.2
2018-11-04T00:15:50.162Z,4.5
2018-11-04T00:16:50.172Z,4.3
2018-11-04T00:17:50.214Z,4.3
2018-11-04T00:18:50.220Z,4.2
2018-11-04T00:19:50.236Z,4
2018-11-04T00:20:50.342Z,3.8
2018-11-04T00:21:50.166Z,3.8
2018-11-04T00:22:50.222Z,4
2018-11-04T00:23:50.237Z,4.3
2018-11-04T00:24:50.162Z,4.5
2018-11-04T00:25:50.155Z,4.6
2018-11-04T00:26:50.219Z,4.7
2018-11-04T00:27:50.246Z,4.8
2018-11-04T00:28:50.169Z,4.8
2018-11-04T00:29:50.270Z,4.9
2018-11-04T00:30:50.174Z,5.2
2018-11-04T00:31:50.227Z,5.1
2018-11-04T00:32:50.151Z,4.9
2018-11-04T00:33:50.182Z,4.8
2018-11-04T00:34:50.143Z,4.6
2018-11-04T00:35:50.147Z,4.2
2018-11-04T00:36:50.202Z,4.1
2018-11-04T00:37:50.146Z,4.2
2018-11-04T00:38:50.136Z,3.9
2018-11-04T00:39:50.165Z,3.7
2018-11-04T00:40:50.154Z,3.6
2018-11-04T00:41:50.197Z,3.4
2018-11-04T00:42:50.203Z,3.2
2018-11-04T00:43:50.210Z,3
2018-11-04T00:44:50.144Z,2.7
2018-11-04T00:45:50.147Z,2.6
2018-11-04T00:46:50.214Z,2.8
2018-11-04T00:47:50.597Z,2.9
2018-11-04T00:48:50.154Z,3.2
2018-11-04T00:49:50.131Z,3.2
2018-11-04T00:50:50.145Z,3.1
2018-11-04T00:51:50.214Z,3.2
2018-11-04T00:52:50.138Z,3
2018-11-04T00:53:50.140Z,2.9
2018-11-04T00:54:50.186Z,2.7
2018-11-04T00:55:50.192Z,2.5
2018-11-04T00:56:50.140Z,2.5
2018-11-04T00:57:50.204Z,2.7
2018-11-04T00:58:50.135Z,2.6
2018-11-04T00:59:50.132Z,2.4
2018-11-04T01:00:50.137Z,2.2
2018-11-04T01:01:50.132Z,2
2018-11-04T01:02:50.207Z,2
2018-11-04T01:03:50.135Z,1.8
2018-11-04T01:04:50.201Z,2
2018-11-04T01:05:50.187Z,2.1
2018-11-04T01:06:50.135Z,2.2
2018-11-04T01:07:50.137Z,2.2
2018-11-04T01:08:50.205Z,2.2
2018-11-04T01:09:50.198Z,2.1
2018-11-04T01:10:50.131Z,2.2
2018-11-04T01:11:50.207Z,2
2018-11-04T01:12:50.123Z,1.9
2018-11-04T01:13:50.125Z,2.3
2018-11-04T01:14:50.126Z,2.4
2018-11-04T01:15:50.144Z,2.4
2018-11-04T01:16:50.191Z,2.3
2018-11-04T01:17:50.124Z,2.3
2018-11-04T01:18:50.127Z,2.8
2018-11-04T01:19:50.193Z,3.2
2018-11-04T01:20:50.208Z,3.3
2018-11-04T01:21:50.193Z,3.5
2018-11-04T01:22:50.123Z,4
2018-11-04T01:23:50.149Z,3.9
2018-11-04T01:24:50.134Z,3.8
2018-11-04T01:25:50.126Z,3.9
2018-11-04T01:26:50.176Z,4.2
2018-11-04T01:27:50.193Z,4.3
2018-11-04T01:28:50.139Z,4.4
2018-11-04T01:29:50.142Z,4.5
2018-11-04T01:30:50.190Z,4.5
2018-11-04T01:31:50.124Z,4.5
2018-11-04T01:32:50.189Z,4.6
2018-11-04T01:33:50.174Z,4.4
2018-11-04T01:34:50.127Z,4.4
2018-11-04T01:35:50.126Z,4.2
2018-11-04T01:36:50.190Z,4.1
2018-11-04T01:37:50.115Z,4.2
2018-11-04T01:38:50.120Z,4.7
2018-11-04T01:39:50.240Z,5.1
2018-11-04T01:40:50.119Z,5.2
2018-11-04T01:41:50.117Z,5.1
2018-11-04T01:42:50.117Z,5
2018-11-04T01:43:50.186Z,5
2018-11-04T01:44:50.130Z,5
2018-11-04T01:45:50.109Z,5.3
2018-11-04T01:46:50.116Z,5.1
2018-11-04T01:47:52.286Z,5
2018-11-04T01:48:50.184Z,4.8
2018-11-04T01:49:50.123Z,5.1
2018-11-04T01:50:50.125Z,5.1
2018-11-04T01:51:50.111Z,5.2
2018-11-04T01:52:50.117Z,4.8
2018-11-04T01:53:50.168Z,5.1
2018-11-04T01:54:50.180Z,5.3
2018-11-04T01:55:50.107Z,5.2
2018-11-04T01:56:50.180Z,4.8
2018-11-04T01:57:50.126Z,4.5
2018-11-04T01:58:50.118Z,4.8
2018-11-04T01:59:50.119Z,4.8
2018-11-04T02:00:50.119Z,5.1
2018-11-04T02:01:50.183Z,5.2
2018-11-04T02:02:50.123Z,5.4
2018-11-04T02:03:50.187Z,5.4
2018-11-04T02:04:50.114Z,5.3
2018-11-04T02:05:50.110Z,5.4
2018-11-04T02:06:50.181Z,5.1
2018-11-04T02:07:50.114Z,4.9
2018-11-04T02:08:50.130Z,5
2018-11-04T02:09:50.120Z,5.3
2018-11-04T02:10:50.107Z,5.2
2018-11-04T02:11:50.184Z,5.3
2018-11-04T02:12:50.121Z,5.1
2018-11-04T02:13:50.138Z,5
2018-11-04T02:14:50.112Z,4.8
2018-11-04T02:15:50.106Z,5
2018-11-04T02:16:50.179Z,5
2018-11-04T02:17:50.124Z,5.1
2018-11-04T02:18:50.174Z,5.1
2018-11-04T02:19:50.168Z,4.9
2018-11-04T02:20:50.112Z,4.7
2018-11-04T02:21:50.177Z,4.4
2018-11-04T02:22:50.110Z,4.9
2018-11-04T02:23:50.102Z,5.3
2018-11-04T02:24:50.116Z,5.3
2018-11-04T02:25:50.175Z,5.3
2018-11-04T02:26:50.098Z,5
2018-11-04T02:27:50.387Z,4.9
2018-11-04T02:28:50.123Z,5.1
2018-11-04T02:29:50.105Z,4.8
2018-11-04T02:30:50.098Z,4.7
2018-11-04T02:31:50.102Z,4.7
2018-11-04T02:32:50.175Z,4.4
2018-11-04T02:33:50.114Z,4.1
2018-11-04T02:34:50.106Z,4.2
2018-11-04T02:35:50.103Z,4.1
2018-11-04T02:36:50.172Z,3.9
2018-11-04T02:37:50.177Z,3.5
2018-11-04T02:38:50.104Z,3.3
2018-11-04T02:39:50.162Z,3.2
2018-11-04T02:40:50.091Z,3
2018-11-04T02:41:50.096Z,2.9
2018-11-04T02:42:50.165Z,2.9
2018-11-04T02:43:50.171Z,2.8
2018-11-04T02:44:50.158Z,2.9
2018-11-04T02:45:50.105Z,3.1
2018-11-04T02:46:50.100Z,2.8
2018-11-04T02:47:52.703Z,2.9
2018-11-04T02:48:50.161Z,2.9
2018-11-04T02:49:50.104Z,2.6
2018-11-04T02:50:50.090Z,2.4
2018-11-04T02:51:50.110Z,2.3
2018-11-04T02:52:50.101Z,2.2
2018-11-04T02:53:50.185Z,2.2
2018-11-04T02:54:50.095Z,2.3
2018-11-04T02:55:50.095Z,2.2
2018-11-04T02:56:50.100Z,2.3
2018-11-04T02:57:50.109Z,2.3
2018-11-04T02:58:50.163Z,2.2
2018-11-04T02:59:50.097Z,2.1
2018-11-04T03:00:50.099Z,1.9
2018-11-04T03:01:50.151Z,1.7
2018-11-04T03:02:50.155Z,1.5
2018-11-04T03:03:50.096Z,1.6
2018-11-04T03:04:50.091Z,1.5
2018-11-04T03:05:50.163Z,1.4
2018-11-04T03:06:50.212Z,1.3
2018-11-04T03:07:50.089Z,1.2
2018-11-04T03:08:50.088Z,1.1
2018-11-04T03:09:50.097Z,1
2018-11-04T03:10:50.081Z,1.1
2018-11-04T03:11:50.158Z,1
2018-11-04T03:12:50.095Z,0.9
2018-11-04T03:13:50.163Z,0.9
2018-11-04T03:14:50.098Z,0.8
2018-11-04T03:15:50.088Z,0.7
2018-11-04T03:16:50.086Z,0.7
2018-11-04T03:17:50.092Z,1
2018-11-04T03:18:50.153Z,1
2018-11-04T03:19:50.110Z,1
2018-11-04T03:20:50.148Z,1.3
2018-11-04T03:21:50.113Z,1.2
2018-11-04T03:22:50.080Z,1.5
2018-11-04T03:23:50.149Z,1.8
2018-11-04T03:24:50.239Z,1.9
2018-11-04T03:25:50.086Z,1.8
2018-11-04T03:26:50.080Z,1.6
2018-11-04T03:27:50.080Z,1.5
2018-11-04T03:28:50.163Z,1.4
2018-11-04T03:29:50.107Z,1.2
2018-11-04T03:30:50.078Z,1.2
2018-11-04T03:31:50.079Z,1.6
2018-11-04T03:32:50.117Z,1.5
2018-11-04T03:33:50.145Z,1.4
2018-11-04T03:34:50.079Z,1.5
2018-11-04T03:35:50.097Z,1.4
2018-11-04T03:36:50.082Z,2
2018-11-04T03:37:50.163Z,2.3
2018-11-04T03:38:50.076Z,2.5
2018-11-04T03:39:50.152Z,2.4
2018-11-04T03:40:50.082Z,2.4
2018-11-04T03:41:50.077Z,2.6
2018-11-04T03:42:50.073Z,2.4
2018-11-04T03:43:50.088Z,2.5
2018-11-04T03:44:50.146Z,2.6
2018-11-04T03:45:50.137Z,2.9
2018-11-04T03:46:50.071Z,3.2
2018-11-04T03:47:50.081Z,3
2018-11-04T03:48:50.123Z,3.5
2018-11-04T03:49:50.083Z,3.8
2018-11-04T03:50:50.104Z,3.7
2018-11-04T03:51:50.136Z,3.5
2018-11-04T03:52:50.088Z,3.4
2018-11-04T03:53:50.076Z,3
2018-11-04T03:54:50.069Z,2.8
2018-11-04T03:55:50.078Z,2.7
2018-11-04T03:56:50.143Z,2.8
2018-11-04T03:57:50.062Z,2.8
2018-11-04T03:58:50.073Z,3
2018-11-04T03:59:50.070Z,3
2018-11-04T04:00:50.089Z,3.1
2018-11-04T04:01:50.139Z,3.1
2018-11-04T04:02:50.074Z,3.1
2018-11-04T04:03:50.072Z,3.2
2018-11-04T04:04:50.079Z,3.1
2018-11-04T04:05:50.140Z,2.9
2018-11-04T04:06:50.235Z,2.9
2018-11-04T04:07:50.084Z,2.7
2018-11-04T04:08:50.073Z,2.8
2018-11-04T04:09:50.069Z,2.6
2018-11-04T04:10:50.076Z,2.5
2018-11-04T04:11:50.138Z,2.6
2018-11-04T04:12:50.092Z,2.4
2018-11-04T04:13:50.065Z,2.2
2018-11-04T04:14:50.137Z,2.4
2018-11-04T04:15:50.067Z,2.5
2018-11-04T04:16:50.072Z,2.6
2018-11-04T04:17:50.064Z,2.5
2018-11-04T04:18:50.069Z,2.3
2018-11-04T04:19:50.143Z,2.4
2018-11-04T04:20:50.076Z,2.2
2018-11-04T04:21:50.131Z,2.2
2018-11-04T04:22:50.068Z,2
2018-11-04T04:23:50.060Z,1.9
2018-11-04T04:24:50.059Z,1.7
2018-11-04T04:25:51.005Z,1.6
2018-11-04T04:26:50.141Z,1.7
2018-11-04T04:27:50.070Z,1.8
2018-11-04T04:28:50.066Z,1.8
2018-11-04T04:29:50.088Z,1.8
2018-11-04T04:30:50.072Z,1.6
2018-11-04T04:31:50.127Z,1.5
2018-11-04T04:32:50.060Z,1.3
2018-11-04T04:33:50.065Z,1.2
2018-11-04T04:34:50.057Z,1.1
2018-11-04T04:35:50.127Z,1
2018-11-04T04:36:50.058Z,0.9
2018-11-04T04:37:50.058Z,0.9
2018-11-04T04:38:50.076Z,0.8
2018-11-04T04:39:50.097Z,0.8
2018-11-04T04:40:50.131Z,0.7
2018-11-04T04:41:50.057Z,0.7
2018-11-04T04:42:50.054Z,0.6
2018-11-04T04:43:50.054Z,0.6
2018-11-04T04:44:50.068Z,0.5
2018-11-04T04:45:50.115Z,0.5
2018-11-04T04:46:50.050Z,0.4
2018-11-04T04:47:51.979Z,0.4
2018-11-04T04:48:50.065Z,0.4
2018-11-04T04:49:50.071Z,0.3
2018-11-04T04:50:50.049Z,0.3
2018-11-04T04:51:50.121Z,0.3
2018-11-04T04:52:50.065Z,0.2
2018-11-04T04:53:50.049Z,0.3
2018-11-04T04:54:50.121Z,0.3
2018-11-04T04:55:50.060Z,0.3
2018-11-04T04:56:50.048Z,0.3
2018-11-04T04:57:50.046Z,0.2
2018-11-04T04:58:50.046Z,0.2
2018-11-04T04:59:50.097Z,0.2
2018-11-04T05:00:50.068Z,0.2
2018-11-04T05:01:50.046Z,0.2
2018-11-04T05:02:50.144Z,0.2
2018-11-04T05:03:50.043Z,0.2
2018-11-04T05:04:50.041Z,0.1
2018-11-04T05:05:50.043Z,0.2
2018-11-04T05:06:50.041Z,0.2
2018-11-04T05:07:50.116Z,0.1
2018-11-04T05:08:50.066Z,0.3
2018-11-04T05:09:50.041Z,0.3
2018-11-04T05:10:50.048Z,0.3
2018-11-04T05:11:50.044Z,0.3
2018-11-04T05:12:50.090Z,0.3
2018-11-04T05:13:50.127Z,0.3
2018-11-04T05:14:50.046Z,0.3
2018-11-04T05:15:50.037Z,0.5
2018-11-04T05:16:50.041Z,0.4
2018-11-04T05:17:50.169Z,0.4
2018-11-04T05:18:50.046Z,0.7
2018-11-04T05:19:50.040Z,0.6
2018-11-04T05:20:50.051Z,0.5
2018-11-04T05:21:50.038Z,0.8
2018-11-04T05:22:50.110Z,0.9
2018-11-04T05:23:50.060Z,0.9
2018-11-04T05:24:50.038Z,0.9
2018-11-04T05:25:50.042Z,0.8
2018-11-04T05:26:50.035Z,0.8
2018-11-04T05:27:50.111Z,0.7
2018-11-04T05:28:50.037Z,0.8
2018-11-04T05:29:50.037Z,0.8
2018-11-04T05:30:50.048Z,0.9
2018-11-04T05:31:50.111Z,0.8
2018-11-04T05:32:50.033Z,0.9
2018-11-04T05:33:50.092Z,1
2018-11-04T05:34:50.040Z,0.9
2018-11-04T05:35:50.033Z,0.8
2018-11-04T05:36:50.097Z,0.7
2018-11-04T05:37:50.038Z,0.8
2018-11-04T05:38:50.052Z,0.9
2018-11-04T05:39:50.030Z,0.8
2018-11-04T05:40:50.049Z,0.9
2018-11-04T05:41:50.113Z,0.8
2018-11-04T05:42:50.031Z,0.9
2018-11-04T05:43:50.047Z,1
2018-11-04T05:44:50.048Z,1.2
2018-11-04T05:45:50.038Z,1.1
2018-11-04T05:46:50.148Z,1
2018-11-04T05:47:52.576Z,1
2018-11-04T05:48:50.037Z,0.9
2018-11-04T05:49:50.048Z,0.8
2018-11-04T05:50:50.025Z,0.7
2018-11-04T05:51:50.083Z,0.6
2018-11-04T05:52:50.038Z,0.7
2018-11-04T05:53:50.028Z,0.7
2018-11-04T05:54:50.043Z,0.7
2018-11-04T05:55:50.037Z,1
2018-11-04T05:56:50.107Z,1
2018-11-04T05:57:50.047Z,0.9
2018-11-04T05:58:50.339Z,0.8
2018-11-04T05:59:50.025Z,0.7
2018-11-04T06:00:50.024Z,0.7
2018-11-04T06:01:50.101Z,0.6
2018-11-04T06:02:50.026Z,0.5
2018-11-04T06:03:50.026Z,0.5
2018-11-04T06:04:50.021Z,0.4
2018-11-04T06:05:50.075Z,0.4
2018-11-04T06:06:50.098Z,0.4
2018-11-04T06:07:50.032Z,0.3
2018-11-04T06:08:50.090Z,0.3
2018-11-04T06:09:50.017Z,0.3
2018-11-04T06:10:50.090Z,0.2
2018-11-04T06:11:50.025Z,0.2
2018-11-04T06:12:50.032Z,0.2
2018-11-04T06:13:50.095Z,0.2
2018-11-04T06:14:51.472Z,0.2
2018-11-04T06:15:50.019Z,0.1
2018-11-04T06:16:50.026Z,0.1
2018-11-04T06:17:50.069Z,0.1
2018-11-04T06:18:50.029Z,0.1
2018-11-04T06:19:50.089Z,0.1
2018-11-04T06:20:50.030Z,0.1
2018-11-04T06:21:50.020Z,0.1
2018-11-04T06:22:50.104Z,0.1
2018-11-04T06:23:50.023Z,0.2
2018-11-04T06:24:50.075Z,0.4
2018-11-04T06:25:52.439Z,0.6
2018-11-04T06:26:50.017Z,0.6
2018-11-04T06:27:50.015Z,0.5
2018-11-04T06:28:50.011Z,0.7
2018-11-04T06:29:50.090Z,0.7
2018-11-04T06:30:50.014Z,0.6
2018-11-04T06:31:50.014Z,0.6
2018-11-04T06:32:50.085Z,0.5
2018-11-04T06:33:50.026Z,0.5
2018-11-04T06:34:50.029Z,0.4
2018-11-04T06:35:50.010Z,0.4
2018-11-04T06:36:51.504Z,0.4
2018-11-04T06:37:50.020Z,0.3
2018-11-04T06:38:50.016Z,0.3
2018-11-04T06:39:50.023Z,0.3
2018-11-04T06:40:50.011Z,0.2
2018-11-04T06:41:50.067Z,0.2
2018-11-04T06:42:50.079Z,0.2
2018-11-04T06:43:50.008Z,0.3
2018-11-04T06:44:50.012Z,0.3
2018-11-04T06:45:50.021Z,0.2
2018-11-04T06:46:50.086Z,0.2
2018-11-04T06:47:50.020Z,0.3
2018-11-04T06:48:50.014Z,0.3
2018-11-04T06:49:50.015Z,0.3
2018-11-04T06:50:50.007Z,0.4
2018-11-04T06:51:50.078Z,0.5
2018-11-04T06:52:50.012Z,0.5
2018-11-04T06:53:50.070Z,0.5
2018-11-04T06:54:50.004Z,0.6
2018-11-04T06:55:50.009Z,0.5
2018-11-04T06:56:50.007Z,0.5
2018-11-04T06:57:50.006Z,0.4
2018-11-04T06:58:50.009Z,0.6
2018-11-04T06:59:50.046Z,0.6
2018-11-04T07:00:50.007Z,0.5
2018-11-04T07:01:50.015Z,0.8
2018-11-04T07:02:50.001Z,0.9
2018-11-04T07:03:50.725Z,0.9
2018-11-04T07:04:50.004Z,0.9
2018-11-04T07:05:50.072Z,1
2018-11-04T07:06:50.016Z,0.9
2018-11-04T07:07:50.002Z,0.9
2018-11-04T07:08:50.017Z,1.1
2018-11-04T07:09:50.055Z,1.3
2018-11-04T07:10:50.080Z,1.2
2018-11-04T07:11:50.012Z,1.4
2018-11-04T07:12:50.013Z,1.4
2018-11-04T07:13:50.005Z,1.4
2018-11-04T07:14:50.017Z,1.4
2018-11-04T07:15:50.086Z,1.4
2018-11-04T07:16:50.061Z,1.3
2018-11-04T07:17:50.071Z,1.4
2018-11-04T07:18:49.997Z,1.3
2018-11-04T07:19:50.063Z,1.6
2018-11-04T07:20:50.204Z,1.9
2018-11-04T07:21:50.014Z,2
2018-11-04T07:22:49.998Z,2
2018-11-04T07:23:50.000Z,2.2
2018-11-04T07:24:50.085Z,2.5
2018-11-04T07:25:51.865Z,2.4
2018-11-04T07:26:50.034Z,2.2
2018-11-04T07:27:50.058Z,2
2018-11-04T07:28:50.003Z,1.9
2018-11-04T07:29:50.064Z,1.8
2018-11-04T07:30:49.996Z,1.8
2018-11-04T07:31:50.028Z,1.7
2018-11-04T07:32:50.017Z,1.5
2018-11-04T07:33:50.074Z,1.4
2018-11-04T07:34:49.987Z,1.4
2018-11-04T07:35:49.990Z,1.6
2018-11-04T07:36:50.064Z,1.6
2018-11-04T07:37:50.029Z,1.8
2018-11-04T07:38:49.999Z,1.8
2018-11-04T07:39:50.007Z,2.2
2018-11-04T07:40:50.007Z,2.2
2018-11-04T07:41:50.050Z,2.3
2018-11-04T07:42:49.998Z,2.3
2018-11-04T07:43:50.008Z,2.1
2018-11-04T07:44:49.997Z,2.1
2018-11-04T07:45:50.015Z,2.3
2018-11-04T07:46:50.053Z,2.3
2018-11-04T07:47:49.986Z,2.7
2018-11-04T07:48:50.059Z,3.1
2018-11-04T07:49:50.088Z,3.2
2018-11-04T07:50:50.128Z,3.7
2018-11-04T07:51:50.090Z,3.8
2018-11-04T07:52:50.063Z,3.9
2018-11-04T07:53:50.104Z,4.2
2018-11-04T07:54:50.088Z,4.4
2018-11-04T07:55:50.073Z,4.5
2018-11-04T07:56:50.130Z,4.7
2018-11-04T07:57:50.067Z,4.8
2018-11-04T07:58:50.066Z,4.8
2018-11-04T07:59:50.073Z,4.5
2018-11-04T08:00:50.059Z,4.3
2018-11-04T08:01:50.240Z,4
2018-11-04T08:02:50.073Z,3.6
2018-11-04T08:03:50.077Z,3.4
2018-11-04T08:04:50.125Z,3.6
2018-11-04T08:05:51.191Z,3.8
2018-11-04T08:06:51.512Z,3.8
2018-11-04T08:07:50.110Z,4.1
2018-11-04T08:08:50.061Z,4
2018-11-04T08:09:50.021Z,3.9
2018-11-04T08:10:50.022Z,3.7
2018-11-04T08:11:50.025Z,3.7
2018-11-04T08:12:50.235Z,3.9
2018-11-04T08:13:50.017Z,3.9
2018-11-04T08:14:51.681Z,4
2018-11-04T08:15:50.088Z,3.8
2018-11-04T08:16:50.262Z,4.1
2018-11-04T08:17:50.017Z,4.1
2018-11-04T08:18:50.073Z,4.4
2018-11-04T08:19:50.059Z,4.3
2018-11-04T08:20:50.118Z,4.4
2018-11-04T08:21:50.126Z,4.5
2018-11-04T08:22:50.019Z,4.5
2018-11-04T08:23:50.101Z,4.3
2018-11-04T08:24:50.021Z,4.4
2018-11-04T08:25:51.631Z,4.2
2018-11-04T08:26:50.078Z,4.2
2018-11-04T08:27:50.122Z,3.9
2018-11-04T08:28:50.077Z,3.8
2018-11-04T08:29:50.014Z,3.8
2018-11-04T08:30:50.009Z,3.8
2018-11-04T08:31:50.012Z,4
2018-11-04T08:32:50.031Z,3.9
2018-11-04T08:33:50.151Z,3.8
2018-11-04T08:34:50.061Z,3.9
2018-11-04T08:35:50.114Z,4.1
2018-11-04T08:36:52.736Z,4
2018-11-04T08:37:49.992Z,3.9
2018-11-04T08:38:50.160Z,3.7
2018-11-04T08:39:50.056Z,3.6
2018-11-04T08:40:50.047Z,3.9
2018-11-04T08:41:50.035Z,4.1
2018-11-04T08:42:50.092Z,4.1
2018-11-04T08:43:50.089Z,4.1
2018-11-04T08:44:49.988Z,4.2
2018-11-04T08:45:50.713Z,4.3
2018-11-04T08:46:50.637Z,4
2018-11-04T08:47:50.001Z,3.8
2018-11-04T08:48:50.049Z,3.4
2018-11-04T08:49:50.001Z,3.1
2018-11-04T08:50:50.088Z,2.8
2018-11-04T08:51:50.018Z,2.7
2018-11-04T08:52:56.128Z,2.9
2018-11-04T08:53:50.066Z,2.7
2018-11-04T08:54:50.066Z,2.5
2018-11-04T08:55:50.008Z,3
2018-11-04T08:56:50.008Z,3.3
2018-11-04T08:57:50.016Z,3.4
2018-11-04T08:58:50.189Z,3.2
2018-11-04T08:59:50.045Z,3.2
2018-11-04T09:00:49.996Z,3.5
2018-11-04T09:01:50.066Z,3.7
2018-11-04T09:02:52.264Z,3.5
2018-11-04T09:03:50.059Z,3.4
2018-11-04T09:04:49.972Z,3.6
2018-11-04T09:05:51.479Z,3.9
2018-11-04T09:06:50.280Z,3.6
2018-11-04T09:07:51.990Z,3.3
2018-11-04T09:08:50.364Z,3.4
2018-11-04T09:09:50.068Z,3.3
2018-11-04T09:10:51.539Z,3.1
2018-11-04T09:11:51.736Z,3.2
2018-11-04T09:12:50.061Z,3.1
2018-11-04T09:13:50.056Z,3.2
2018-11-04T09:14:52.410Z,3.3
2018-11-04T09:15:50.014Z,3.4
2018-11-04T09:16:50.070Z,3.3
2018-11-04T09:17:50.047Z,3.3
2018-11-04T09:18:50.042Z,3.5
2018-11-04T09:19:50.190Z,3.4
2018-11-04T09:20:50.005Z,3.3
2018-11-04T09:21:50.187Z,3.1
2018-11-04T09:22:50.048Z,2.8
2018-11-04T09:23:50.030Z,2.9
2018-11-04T09:24:50.129Z,2.7
2018-11-04T09:25:49.953Z,2.4
2018-11-04T09:26:49.965Z,2.3
2018-11-04T09:27:50.004Z,2.3
2018-11-04T09:28:50.032Z,2.1
2018-11-04T09:29:50.018Z,1.9
2018-11-04T09:30:49.960Z,1.7
2018-11-04T09:31:49.954Z,1.6
2018-11-04T09:32:49.956Z,1.4
2018-11-04T09:33:49.972Z,1.3
2018-11-04T09:34:50.095Z,1.2
2018-11-04T09:35:50.092Z,1.1
2018-11-04T09:36:49.955Z,1
2018-11-04T09:37:49.961Z,1.2
2018-11-04T09:38:49.957Z,1.5
2018-11-04T09:39:50.028Z,1.3
2018-11-04T09:40:49.945Z,1.2
2018-11-04T09:41:49.951Z,1.1
2018-11-04T09:42:50.097Z,1.1
2018-11-04T09:43:49.970Z,1
2018-11-04T09:44:49.951Z,0.9
2018-11-04T09:45:50.018Z,0.8
2018-11-04T09:46:49.971Z,0.7
2018-11-04T09:47:49.953Z,0.7
2018-11-04T09:48:49.951Z,0.6
2018-11-04T09:49:50.070Z,0.8
2018-11-04T09:50:49.951Z,0.8
2018-11-04T09:51:49.976Z,0.8
2018-11-04T09:52:50.846Z,0.7
2018-11-04T09:53:49.947Z,0.8
2018-11-04T09:54:50.053Z,1.1
2018-11-04T09:55:49.945Z,1.1
2018-11-04T09:56:50.008Z,1.1
2018-11-04T09:57:50.019Z,1
2018-11-04T09:58:52.002Z,0.9
2018-11-04T09:59:49.947Z,0.9
2018-11-04T10:00:50.024Z,0.9
2018-11-04T10:01:49.946Z,0.8
2018-11-04T10:02:50.022Z,0.7
2018-11-04T10:03:49.965Z,0.6
2018-11-04T10:04:49.986Z,0.6
2018-11-04T10:05:50.033Z,0.5
2018-11-04T10:06:49.950Z,0.5
2018-11-04T10:07:49.932Z,0.4
2018-11-04T10:08:49.953Z,0.4
2018-11-04T10:09:50.137Z,0.4
2018-11-04T10:10:49.954Z,0.4
2018-11-04T10:11:49.946Z,0.6
2018-11-04T10:12:49.974Z,0.8
2018-11-04T10:13:49.949Z,1.2
2018-11-04T10:14:50.003Z,1.2
2018-11-04T10:15:49.946Z,1.1
2018-11-04T10:16:49.992Z,1.1
2018-11-04T10:17:50.072Z,1
2018-11-04T10:18:51.166Z,0.9
2018-11-04T10:19:50.133Z,1
2018-11-04T10:20:50.336Z,1.1
2018-11-04T10:21:49.969Z,1.6
2018-11-04T10:22:49.937Z,1.6
2018-11-04T10:23:49.989Z,1.7
2018-11-04T10:24:49.938Z,1.9
2018-11-04T10:25:52.363Z,2
2018-11-04T10:26:49.925Z,2.2
2018-11-04T10:27:49.940Z,2.1
2018-11-04T10:28:49.940Z,2.2
2018-11-04T10:29:49.936Z,2.1
2018-11-04T10:30:49.941Z,2
2018-11-04T10:31:49.929Z,2
2018-11-04T10:32:50.006Z,2
2018-11-04T10:33:49.934Z,2
2018-11-04T10:34:49.945Z,2.5
2018-11-04T10:35:49.993Z,3
2018-11-04T10:36:49.945Z,3.5
2018-11-04T10:37:49.946Z,3.8
2018-11-04T10:38:49.933Z,3.6
2018-11-04T10:39:49.935Z,3.5
2018-11-04T10:40:49.932Z,3.4
2018-11-04T10:41:50.075Z,3.8
2018-11-04T10:42:49.932Z,3.7
2018-11-04T10:43:49.995Z,3.5
2018-11-04T10:44:49.943Z,3.5
2018-11-04T10:45:49.929Z,3.3
2018-11-04T10:46:49.926Z,3
2018-11-04T10:47:49.992Z,3.2
2018-11-04T10:48:50.019Z,3.1
2018-11-04T10:49:49.935Z,2.8
2018-11-04T10:50:50.004Z,3
2018-11-04T10:51:49.929Z,3.1
2018-11-04T10:52:53.229Z,3.4
2018-11-04T10:53:49.922Z,3.6
2018-11-04T10:54:49.947Z,3.8
2018-11-04T10:55:50.050Z,3.9
2018-11-04T10:56:49.943Z,4.1
2018-11-04T10:57:50.008Z,4.2
2018-11-04T10:58:49.933Z,3.9
2018-11-04T10:59:49.984Z,3.5
2018-11-04T11:00:49.930Z,3.3
2018-11-04T11:01:49.931Z,3
2018-11-04T11:02:49.997Z,2.7
2018-11-04T11:03:55.866Z,2.5
2018-11-04T11:04:49.941Z,2.3
2018-11-04T11:05:49.931Z,2.6
2018-11-04T11:06:49.941Z,2.6
2018-11-04T11:07:49.945Z,2.8
2018-11-04T11:08:52.311Z,3.6
2018-11-04T11:09:49.996Z,3.8
2018-11-04T11:10:49.944Z,3.8
2018-11-04T11:11:52.333Z,3.8
2018-11-04T11:12:52.097Z,3.8
2018-11-04T11:13:50.425Z,3.7
2018-11-04T11:14:51.756Z,3.6
2018-11-04T11:15:51.769Z,3.4
2018-11-04T11:16:52.129Z,3.2
2018-11-04T11:17:51.701Z,2.9
2018-11-04T11:18:52.718Z,2.6
2018-11-04T11:19:51.788Z,2.4
2018-11-04T11:20:51.727Z,2.3
2018-11-04T11:21:53.769Z,2.2
2018-11-04T11:22:51.716Z,2.1
2018-11-04T11:23:51.903Z,1.9
2018-11-04T11:24:49.949Z,2.1
2018-11-04T11:25:50.719Z,2.2
2018-11-04T11:26:49.915Z,2.6
2018-11-04T11:27:50.328Z,2.4
2018-11-04T11:28:51.222Z,2.5
2018-11-04T11:29:51.584Z,2.6
2018-11-04T11:30:51.814Z,2.8
2018-11-04T11:31:49.925Z,2.6
2018-11-04T11:32:49.952Z,2.5
2018-11-04T11:33:49.938Z,2.3
2018-11-04T11:34:50.033Z,2.1
2018-11-04T11:35:49.992Z,1.9
2018-11-04T11:36:49.912Z,1.8
2018-11-04T11:37:50.003Z,1.6
2018-11-04T11:38:49.925Z,1.5
2018-11-04T11:39:49.996Z,1.4
2018-11-04T11:40:49.968Z,1.3
2018-11-04T11:41:49.963Z,1.2
2018-11-04T11:42:50.044Z,1.2
2018-11-04T11:43:49.959Z,1.2
2018-11-04T11:44:49.945Z,1.1
2018-11-04T11:45:49.985Z,1
2018-11-04T11:46:50.002Z,0.9
2018-11-04T11:47:49.940Z,0.9
2018-11-04T11:48:49.910Z,0.8
2018-11-04T11:49:49.940Z,0.7
2018-11-04T11:50:49.985Z,0.6
2018-11-04T11:51:51.957Z,0.6
2018-11-04T11:52:53.107Z,0.6
2018-11-04T11:53:52.048Z,0.6
2018-11-04T11:54:51.462Z,0.6
2018-11-04T11:55:49.973Z,0.5
2018-11-04T11:56:49.926Z,0.5
2018-11-04T11:57:49.917Z,0.4
2018-11-04T11:58:49.983Z,0.4
2018-11-04T11:59:49.919Z,0.5
2018-11-04T12:00:49.928Z,0.6
2018-11-04T12:01:49.910Z,0.6
2018-11-04T12:02:49.921Z,0.5
2018-11-04T12:03:49.938Z,0.5
2018-11-04T12:04:49.900Z,0.4
2018-11-04T12:05:49.977Z,0.4
2018-11-04T12:06:49.953Z,0.4
2018-11-04T12:07:49.901Z,0.6
2018-11-04T12:08:49.914Z,0.7
2018-11-04T12:09:49.904Z,0.8
2018-11-04T12:10:49.957Z,0.9
2018-11-04T12:11:49.928Z,0.9
2018-11-04T12:12:55.059Z,0.8
2018-11-04T12:13:52.871Z,0.8
2018-11-04T12:14:53.476Z,0.8
2018-11-04T12:15:50.680Z,0.8
2018-11-04T12:16:50.696Z,0.8
2018-11-04T12:17:50.304Z,0.7
2018-11-04T12:18:50.171Z,0.7
2018-11-04T12:19:49.924Z,0.7
2018-11-04T12:20:49.907Z,0.6
2018-11-04T12:21:49.980Z,0.6
2018-11-04T12:22:49.891Z,0.5
2018-11-04T12:23:51.575Z,0.6
2018-11-04T12:24:51.950Z,0.5
2018-11-04T12:25:51.217Z,0.5
2018-11-04T12:26:50.935Z,0.4
2018-11-04T12:27:51.195Z,0.4
2018-11-04T12:28:50.707Z,0.4
2018-11-04T12:29:50.141Z,0.4
2018-11-04T12:30:51.132Z,0.4
2018-11-04T12:31:49.974Z,0.5
2018-11-04T12:32:53.364Z,0.5
2018-11-04T12:33:52.204Z,0.9
2018-11-04T12:34:52.285Z,0.9
2018-11-04T12:35:52.713Z,0.9
2018-11-04T12:36:52.606Z,1
2018-11-04T12:37:51.375Z,1.1
2018-11-04T12:38:51.141Z,1.1
2018-11-04T12:39:49.967Z,1
2018-11-04T12:40:50.077Z,0.9
2018-11-04T12:41:53.181Z,0.8
2018-11-04T12:42:51.312Z,1
2018-11-04T12:43:51.189Z,0.9
2018-11-04T12:44:52.469Z,0.8
2018-11-04T12:45:51.935Z,1.1
2018-11-04T12:46:50.003Z,1
2018-11-04T12:47:51.464Z,1
2018-11-04T12:48:52.193Z,0.9
2018-11-04T12:49:52.791Z,0.8
2018-11-04T12:50:51.456Z,0.8
2018-11-04T12:51:52.068Z,0.9
2018-11-04T12:52:52.487Z,0.8
2018-11-04T12:53:50.892Z,0.7
2018-11-04T12:54:50.037Z,0.6
2018-11-04T12:55:51.554Z,0.6
2018-11-04T12:56:49.898Z,0.5
2018-11-04T12:57:50.651Z,0.5
2018-11-04T12:58:53.963Z,0.4
2018-11-04T12:59:50.242Z,0.4
2018-11-04T13:00:49.963Z,0.4
2018-11-04T13:01:49.950Z,0.3
2018-11-04T13:02:49.896Z,0.6
2018-11-04T13:03:52.446Z,0.7
2018-11-04T13:04:49.895Z,0.7
2018-11-04T13:05:50.270Z,0.6
2018-11-04T13:06:50.016Z,0.5
2018-11-04T13:07:49.994Z,0.5
2018-11-04T13:08:49.894Z,0.4
2018-11-04T13:09:49.884Z,0.4
2018-11-04T13:10:49.921Z,0.4
2018-11-04T13:11:50.073Z,0.4
2018-11-04T13:12:49.954Z,0.4
2018-11-04T13:13:49.891Z,0.4
2018-11-04T13:14:49.890Z,0.4
2018-11-04T13:15:49.938Z,0.4
2018-11-04T13:16:50.396Z,0.4
2018-11-04T13:17:49.936Z,0.4
2018-11-04T13:18:49.883Z,0.4
2018-11-04T13:19:49.879Z,0.4
2018-11-04T13:20:49.883Z,0.6
2018-11-04T13:21:50.023Z,0.6
2018-11-04T13:22:49.883Z,0.6
2018-11-04T13:23:49.888Z,0.6
2018-11-04T13:24:49.881Z,0.5
2018-11-04T13:25:49.888Z,0.5
2018-11-04T13:26:59.908Z,0.4
2018-11-04T13:27:49.949Z,0.6
2018-11-04T13:28:49.878Z,0.8
2018-11-04T13:29:49.874Z,0.8
2018-11-04T13:30:49.889Z,1
2018-11-04T13:31:49.909Z,1.2
2018-11-04T13:32:49.942Z,1.1
2018-11-04T13:33:49.873Z,1
2018-11-04T13:34:49.890Z,1.1
2018-11-04T13:35:49.956Z,1.1
2018-11-04T13:36:49.876Z,1
2018-11-04T13:37:49.974Z,0.9
2018-11-04T13:38:49.887Z,0.8
2018-11-04T13:39:49.886Z,0.9
2018-11-04T13:40:49.880Z,0.8
2018-11-04T13:41:51.517Z,0.8
2018-11-04T13:42:49.864Z,0.8
2018-11-04T13:43:49.876Z,1.1
2018-11-04T13:44:49.883Z,1
2018-11-04T13:45:49.938Z,0.9
2018-11-04T13:46:49.877Z,0.8
2018-11-04T13:47:49.876Z,0.7
2018-11-04T13:48:49.948Z,0.6
2018-11-04T13:49:49.887Z,0.6
2018-11-04T13:50:49.865Z,0.6
2018-11-04T13:51:49.948Z,0.5